createdAt,value
2017-11-22T00:01:12.714Z,32.67
2017-11-22T00:03:40.145Z,28.58
2017-11-22T00:06:07.578Z,29.90
2017-11-22T00:08:35.022Z,30.90
2017-11-22T00:11:02.458Z,32.30
2017-11-22T00:13:29.922Z,31.67
2017-11-22T00:15:57.364Z,34.00
2017-11-22T00:18:24.794Z,32.03
2017-11-22T00:20:52.238Z,31.83
2017-11-22T00:23:19.681Z,30.35
2017-11-22T00:25:47.139Z,33.00
2017-11-22T00:28:14.575Z,32.55
2017-11-22T00:30:42.009Z,30.60
2017-11-22T00:33:09.453Z,36.53
2017-11-22T00:35:36.890Z,42.22
2017-11-22T00:38:04.337Z,45.90
2017-11-22T00:40:31.777Z,34.15
2017-11-22T00:42:59.234Z,39.35
2017-11-22T00:45:26.689Z,35.55
2017-11-22T00:47:54.124Z,34.28
2017-11-22T00:50:21.611Z,39.05
2017-11-22T00:52:49.049Z,34.00
2017-11-22T00:55:16.478Z,35.60
2017-11-22T00:57:43.938Z,35.65
2017-11-22T01:00:11.385Z,40.08
2017-11-22T01:02:38.924Z,36.20
2017-11-22T01:05:06.363Z,32.50
2017-11-22T01:07:33.892Z,31.08
2017-11-22T01:10:01.342Z,36.72
2017-11-22T01:12:28.773Z,39.78
2017-11-22T01:14:56.228Z,34.90
2017-11-22T01:17:23.680Z,34.25
2017-11-22T01:19:51.114Z,31.62
2017-11-22T01:22:18.569Z,29.00
2017-11-22T01:24:46.014Z,30.27
2017-11-22T01:27:13.461Z,33.13
2017-11-22T01:29:40.898Z,29.15
2017-11-22T01:32:08.343Z,27.70
2017-11-22T01:34:35.778Z,30.35
2017-11-22T01:37:03.226Z,30.35
2017-11-22T01:39:30.654Z,28.73
2017-11-22T01:41:58.087Z,28.25
2017-11-22T01:44:25.529Z,29.42
2017-11-22T01:46:52.966Z,29.00
2017-11-22T01:49:20.410Z,27.92
2017-11-22T01:51:47.839Z,20.60
2017-11-22T01:54:15.264Z,17.48
2017-11-22T01:56:42.706Z,20.27
2017-11-22T01:59:10.142Z,17.95
2017-11-22T02:01:37.585Z,18.85
2017-11-22T02:04:05.033Z,18.67
2017-11-22T02:06:32.476Z,19.08
2017-11-22T02:08:59.918Z,17.80
2017-11-22T02:11:27.372Z,22.17
2017-11-22T02:13:54.827Z,18.75
2017-11-22T02:16:22.258Z,20.30
2017-11-22T02:18:49.689Z,20.25
2017-11-22T02:21:17.133Z,19.42
2017-11-22T02:23:44.561Z,21.12
2017-11-22T02:26:12.000Z,23.92
2017-11-22T02:28:39.438Z,22.95
2017-11-22T02:31:06.888Z,24.85
2017-11-22T02:33:34.332Z,24.30
2017-11-22T02:36:01.761Z,22.73
2017-11-22T02:38:29.212Z,24.90
2017-11-22T02:40:56.641Z,24.10
2017-11-22T02:43:24.074Z,23.52
2017-11-22T02:45:51.520Z,23.48
2017-11-22T02:48:18.946Z,24.73
2017-11-22T02:50:46.394Z,24.60
2017-11-22T02:53:13.827Z,25.30
2017-11-22T02:55:41.257Z,22.30
2017-11-22T02:58:08.702Z,25.30
2017-11-22T03:00:36.131Z,22.85
2017-11-22T03:03:03.574Z,22.95
2017-11-22T03:05:31.006Z,20.15
2017-11-22T03:07:58.437Z,22.33
2017-11-22T03:10:25.882Z,21.45
2017-11-22T03:12:53.317Z,23.00
2017-11-22T03:15:20.761Z,20.70
2017-11-22T03:17:48.190Z,21.35
2017-11-22T03:20:15.619Z,22.05
2017-11-22T03:22:43.057Z,22.75
2017-11-22T03:25:10.496Z,23.73
2017-11-22T03:27:37.945Z,25.02
2017-11-22T03:30:05.384Z,22.17
2017-11-22T03:32:32.821Z,21.33
2017-11-22T03:35:00.262Z,23.00
2017-11-22T03:37:27.697Z,22.42
2017-11-22T03:39:55.137Z,21.55
2017-11-22T03:42:22.561Z,21.60
2017-11-22T03:44:49.991Z,18.45
2017-11-22T03:47:17.481Z,21.80
2017-11-22T03:49:50.347Z,21.65
2017-11-22T03:52:23.262Z,23.08
2017-11-22T03:54:50.685Z,21.85
2017-11-22T03:57:18.142Z,22.58
2017-11-22T03:59:48.358Z,20.58
2017-11-22T04:02:15.787Z,21.15
2017-11-22T04:04:43.226Z,21.10
2017-11-22T04:07:10.657Z,20.50
2017-11-22T04:09:38.122Z,22.75
2017-11-22T04:12:08.389Z,21.25
2017-11-22T04:14:35.936Z,20.95
2017-11-22T04:17:03.634Z,22.08
2017-11-22T04:19:40.219Z,19.27
2017-11-22T04:22:07.662Z,23.67
2017-11-22T04:24:35.206Z,21.70
2017-11-22T04:27:03.398Z,21.17
2017-11-22T04:29:31.085Z,22.15
2017-11-22T04:32:00.909Z,19.50
2017-11-22T04:34:28.351Z,21.37
2017-11-22T04:36:55.781Z,20.42
2017-11-22T04:39:23.226Z,20.05
2017-11-22T04:41:50.653Z,18.73
2017-11-22T04:44:18.090Z,18.55
2017-11-22T04:46:45.526Z,16.67
2017-11-22T04:49:12.950Z,17.92
2017-11-22T04:51:40.402Z,16.70
2017-11-22T04:54:07.859Z,16.25
2017-11-22T04:56:35.286Z,17.45
2017-11-22T04:59:02.744Z,15.38
2017-11-22T05:01:30.791Z,16.50
2017-11-22T05:03:58.257Z,16.40
2017-11-22T05:06:25.685Z,17.62
2017-11-22T05:08:53.113Z,17.80
2017-11-22T05:11:20.559Z,18.37
2017-11-22T05:13:47.994Z,19.92
2017-11-22T05:16:15.428Z,22.80
2017-11-22T05:18:42.854Z,28.05
2017-11-22T05:21:10.291Z,33.35
2017-11-22T05:23:37.734Z,20.80
2017-11-22T05:26:05.164Z,21.05
2017-11-22T05:28:32.620Z,20.27
2017-11-22T05:31:00.056Z,19.60
2017-11-22T05:33:27.482Z,21.00
2017-11-22T05:35:54.924Z,21.35
2017-11-22T05:38:22.353Z,25.37
2017-11-22T05:40:49.799Z,20.98
2017-11-22T05:43:17.245Z,20.15
2017-11-22T05:45:44.679Z,31.27
2017-11-22T05:48:12.129Z,23.98
2017-11-22T05:50:39.561Z,24.73
2017-11-22T05:53:06.990Z,24.40
2017-11-22T05:55:34.448Z,24.65
2017-11-22T05:58:01.880Z,26.55
2017-11-22T06:00:29.498Z,28.42
2017-11-22T06:02:56.948Z,24.42
2017-11-22T06:05:24.377Z,24.30
2017-11-22T06:07:51.821Z,23.12
2017-11-22T06:10:19.253Z,21.20
2017-11-22T06:12:46.693Z,19.25
2017-11-22T06:15:14.134Z,20.90
2017-11-22T06:17:41.557Z,21.62
2017-11-22T06:20:09.003Z,21.90
2017-11-22T06:22:36.430Z,20.98
2017-11-22T06:25:03.854Z,21.65
2017-11-22T06:27:31.306Z,23.27
2017-11-22T06:29:58.733Z,22.08
2017-11-22T06:32:26.174Z,22.75
2017-11-22T06:34:53.617Z,22.50
2017-11-22T06:37:21.052Z,32.33
2017-11-22T06:39:48.488Z,23.52
2017-11-22T06:42:16.857Z,29.27
2017-11-22T06:44:44.290Z,26.98
2017-11-22T06:47:11.725Z,29.70
2017-11-22T06:49:39.173Z,32.15
2017-11-22T06:52:06.606Z,28.40
2017-11-22T06:54:34.039Z,31.55
2017-11-22T06:57:01.484Z,35.72
2017-11-22T06:59:28.923Z,33.25
2017-11-22T07:01:59.200Z,35.47
2017-11-22T07:04:26.641Z,27.90
2017-11-22T07:06:54.086Z,34.95
2017-11-22T07:09:21.514Z,38.75
2017-11-22T07:11:48.966Z,43.20
2017-11-22T07:14:16.402Z,33.78
2017-11-22T07:16:49.542Z,32.03
2017-11-22T07:19:16.973Z,37.42
2017-11-22T07:21:44.410Z,41.83
2017-11-22T07:24:11.875Z,39.65
2017-11-22T07:26:39.297Z,42.88
2017-11-22T07:29:06.731Z,39.20
2017-11-22T07:31:34.182Z,38.40
2017-11-22T07:34:01.657Z,30.50
2017-11-22T07:36:34.658Z,38.83
2017-11-22T07:39:02.102Z,34.30
2017-11-22T07:41:29.538Z,36.85
2017-11-22T07:43:56.982Z,35.20
2017-11-22T07:46:26.350Z,32.00
2017-11-22T07:48:53.792Z,31.15
2017-11-22T07:51:26.782Z,31.45
2017-11-22T07:53:54.225Z,31.98
2017-11-22T07:56:21.663Z,32.03
2017-11-22T07:58:49.094Z,30.73
2017-11-22T08:01:16.542Z,28.38
2017-11-22T08:03:48.382Z,30.30
2017-11-22T08:06:15.809Z,29.92
2017-11-22T08:08:43.266Z,27.87
2017-11-22T08:11:10.697Z,27.98
2017-11-22T08:13:38.137Z,29.75
2017-11-22T08:16:05.570Z,29.45
2017-11-22T08:18:33.004Z,30.23
2017-11-22T08:21:00.449Z,29.25
2017-11-22T08:23:27.882Z,29.65
2017-11-22T08:25:55.321Z,28.98
2017-11-22T08:28:22.765Z,29.17
2017-11-22T08:30:50.202Z,29.27
2017-11-22T08:33:17.633Z,29.73
2017-11-22T08:35:45.073Z,28.38
2017-11-22T08:38:12.509Z,29.10
2017-11-22T08:40:39.956Z,28.77
2017-11-22T08:43:12.947Z,26.40
2017-11-22T08:45:40.373Z,27.83
2017-11-22T08:48:07.803Z,26.15
2017-11-22T08:50:35.240Z,26.58
2017-11-22T08:53:02.667Z,26.35
2017-11-22T08:55:35.867Z,27.80
2017-11-22T08:58:08.818Z,26.33
2017-11-22T09:00:36.266Z,26.52
2017-11-22T09:03:03.689Z,24.75
2017-11-22T09:05:31.124Z,27.35
2017-11-22T09:07:58.562Z,25.88
2017-11-22T09:10:26.523Z,29.23
2017-11-22T09:12:53.970Z,30.15
2017-11-22T09:15:21.413Z,27.85
2017-11-22T09:17:48.837Z,28.65
2017-11-22T09:20:16.283Z,27.80
2017-11-22T09:22:43.715Z,29.98
2017-11-22T09:25:12.034Z,29.37
2017-11-22T09:27:44.937Z,27.70
2017-11-22T09:30:13.165Z,28.65
2017-11-22T09:32:40.602Z,28.80
2017-11-22T09:35:08.032Z,28.20
2017-11-22T09:37:35.478Z,29.02
2017-11-22T09:40:02.919Z,27.15
2017-11-22T09:42:30.374Z,27.92
2017-11-22T09:44:57.804Z,27.62
2017-11-22T09:47:25.241Z,26.00
2017-11-22T09:49:52.687Z,24.98
2017-11-22T09:52:20.125Z,26.23
2017-11-22T09:54:47.572Z,25.12
2017-11-22T09:57:15.026Z,25.45
2017-11-22T09:59:42.454Z,23.42
2017-11-22T10:02:09.892Z,23.58
2017-11-22T10:04:37.318Z,24.07
2017-11-22T10:07:04.766Z,23.92
2017-11-22T10:09:32.198Z,24.27
2017-11-22T10:11:59.621Z,23.83
2017-11-22T10:14:27.062Z,23.90
2017-11-22T10:17:00.020Z,24.53
2017-11-22T10:19:27.459Z,25.63
2017-11-22T10:22:00.486Z,26.00
2017-11-22T10:24:32.802Z,25.87
2017-11-22T10:40:22.345Z,25.83
2017-11-22T10:42:49.771Z,27.13
2017-11-22T10:45:17.199Z,27.30
2017-11-22T10:47:44.635Z,29.13
2017-11-22T10:50:12.053Z,27.73
2017-11-22T10:52:39.501Z,28.17
2017-11-22T10:55:06.922Z,29.07
2017-11-22T10:57:34.351Z,25.80
2017-11-22T11:00:01.782Z,25.57
2017-11-22T11:02:29.214Z,26.77
2017-11-22T11:04:56.653Z,25.40
2017-11-22T11:07:24.074Z,27.90
2017-11-22T11:09:51.502Z,25.73
2017-11-22T11:12:18.944Z,24.10
2017-11-22T11:14:46.394Z,22.50
2017-11-22T11:17:13.842Z,21.00
2017-11-22T11:19:41.266Z,20.83
2017-11-22T11:22:08.703Z,24.07
2017-11-22T11:24:36.136Z,26.77
2017-11-22T11:27:03.570Z,23.63
2017-11-22T11:29:31.004Z,26.03
2017-11-22T11:31:58.430Z,23.53
2017-11-22T11:34:25.863Z,22.83
2017-11-22T11:36:53.290Z,20.80
2017-11-22T11:39:20.724Z,20.80
2017-11-22T11:41:48.149Z,21.47
2017-11-22T11:44:15.574Z,21.97
2017-11-22T11:46:43.012Z,19.53
2017-11-22T11:49:10.790Z,21.13
2017-11-22T11:51:38.224Z,20.63
2017-11-22T11:54:05.646Z,18.37
2017-11-22T11:56:33.077Z,19.57
2017-11-22T11:59:00.516Z,20.07
2017-11-22T12:01:27.937Z,17.77
2017-11-22T12:03:55.388Z,20.80
2017-11-22T12:06:22.810Z,21.33
2017-11-22T12:08:50.259Z,18.70
2017-11-22T12:11:17.681Z,19.57
2017-11-22T12:13:45.109Z,18.20
2017-11-22T12:16:12.545Z,20.37
2017-11-22T12:18:39.994Z,19.33
2017-11-22T12:21:10.240Z,19.23
2017-11-22T12:23:37.661Z,18.67
2017-11-22T12:26:05.095Z,17.90
2017-11-22T12:28:32.530Z,17.90
2017-11-22T12:30:59.957Z,18.10
2017-11-22T12:33:27.452Z,18.20
2017-11-22T12:35:54.873Z,18.17
2017-11-22T12:38:24.233Z,19.43
2017-11-22T12:40:51.666Z,19.53
2017-11-22T12:43:19.104Z,19.57
2017-11-22T12:45:46.525Z,19.13
2017-11-22T12:48:13.990Z,18.83
2017-11-22T12:50:41.421Z,18.50
2017-11-22T12:53:08.863Z,22.00
2017-11-22T12:55:36.301Z,20.97
2017-11-22T12:58:03.723Z,20.53
2017-11-22T13:00:31.159Z,23.17
2017-11-22T13:02:58.594Z,22.93
2017-11-22T13:05:26.041Z,25.13
2017-11-22T13:07:53.462Z,22.00
2017-11-22T13:10:26.541Z,20.87
2017-11-22T13:12:53.964Z,20.90
2017-11-22T13:15:21.400Z,18.27
2017-11-22T13:17:48.833Z,17.47
2017-11-22T13:20:16.265Z,16.00
2017-11-22T13:22:43.704Z,14.77
2017-11-22T13:25:11.130Z,14.13
2017-11-22T13:27:38.568Z,14.17
2017-11-22T13:30:06.000Z,12.20
2017-11-22T13:32:41.848Z,12.60
2017-11-22T13:35:09.294Z,11.13
2017-11-22T13:37:36.716Z,12.47
2017-11-22T13:40:04.139Z,12.43
2017-11-22T13:42:31.577Z,11.60
2017-11-22T13:44:58.997Z,11.80
2017-11-22T13:47:26.447Z,12.40
2017-11-22T13:49:53.870Z,12.40
2017-11-22T13:52:21.305Z,14.10
2017-11-22T13:54:48.731Z,12.43
2017-11-22T13:57:16.153Z,12.90
2017-11-22T13:59:43.586Z,13.10
2017-11-22T14:02:11.018Z,13.60
2017-11-22T14:04:38.453Z,13.63
2017-11-22T14:07:05.877Z,13.43
2017-11-22T14:09:33.305Z,13.53
2017-11-22T14:12:00.746Z,12.10
2017-11-22T14:14:28.166Z,13.20
2017-11-22T14:16:55.606Z,13.93
2017-11-22T14:19:23.028Z,14.20
2017-11-22T14:21:50.458Z,13.07
2017-11-22T14:24:17.899Z,12.40
2017-11-22T14:26:45.322Z,12.57
2017-11-22T14:29:12.761Z,13.07
2017-11-22T14:31:40.182Z,12.10
2017-11-22T14:34:07.606Z,12.47
2017-11-22T14:36:35.070Z,14.00
2017-11-22T14:39:02.497Z,12.60
2017-11-22T14:41:29.935Z,12.53
2017-11-22T14:43:57.361Z,11.40
2017-11-22T14:46:24.798Z,11.80
2017-11-22T14:48:52.235Z,14.30
2017-11-22T14:51:19.686Z,13.43
2017-11-22T14:53:47.131Z,11.97
2017-11-22T14:56:14.553Z,13.53
2017-11-22T14:58:42.007Z,13.00
2017-11-22T15:01:09.453Z,14.10
2017-11-22T15:03:36.881Z,13.83
2017-11-22T15:06:04.322Z,12.90
2017-11-22T15:08:31.762Z,14.03
2017-11-22T15:10:59.202Z,13.67
2017-11-22T15:13:26.645Z,13.40
2017-11-22T15:15:54.069Z,15.27
2017-11-22T15:18:21.507Z,14.20
2017-11-22T15:20:48.976Z,12.80
2017-11-22T15:23:16.416Z,16.47
2017-11-22T15:25:43.841Z,13.87
2017-11-22T15:28:11.270Z,12.77
2017-11-22T15:30:38.738Z,13.50
2017-11-22T15:33:06.161Z,13.53
2017-11-22T15:35:33.597Z,13.50
2017-11-22T15:38:01.018Z,12.77
2017-11-22T15:40:28.419Z,12.30
2017-11-22T15:42:55.878Z,13.27
2017-11-22T15:45:23.301Z,13.03
2017-11-22T15:47:50.733Z,12.90
2017-11-22T15:50:18.146Z,13.90
2017-11-22T15:52:45.585Z,12.03
2017-11-22T15:55:13.005Z,12.13
2017-11-22T15:57:40.443Z,11.53
2017-11-22T16:00:07.871Z,11.80
2017-11-22T16:02:35.315Z,12.50
2017-11-22T16:05:02.777Z,14.00
2017-11-22T16:07:30.197Z,12.77
2017-11-22T16:09:57.631Z,12.50
2017-11-22T16:12:25.064Z,13.20
2017-11-22T16:14:52.549Z,10.73
2017-11-22T16:17:19.981Z,9.50
2017-11-22T16:19:47.398Z,9.20
2017-11-22T16:22:14.820Z,10.50
2017-11-22T16:24:42.258Z,10.57
2017-11-22T16:27:09.667Z,8.67
2017-11-22T16:29:37.109Z,8.50
2017-11-22T16:32:04.529Z,11.60
2017-11-22T16:34:31.947Z,11.87
2017-11-22T16:36:59.380Z,10.93
2017-11-22T16:39:26.803Z,13.43
2017-11-22T16:41:54.238Z,15.43
2017-11-22T16:44:21.662Z,14.70
2017-11-22T16:46:49.077Z,16.70
2017-11-22T16:49:16.513Z,16.53
2017-11-22T16:51:43.929Z,17.50
2017-11-22T16:54:11.361Z,17.20
2017-11-22T16:59:11.515Z,16.30
2017-11-22T17:01:38.942Z,15.97
2017-11-22T17:04:06.353Z,15.07
2017-11-22T17:06:33.784Z,15.07
2017-11-22T17:09:01.202Z,14.83
2017-11-22T17:11:28.642Z,15.40
2017-11-22T17:13:56.110Z,14.43
2017-11-22T17:16:23.535Z,14.50
2017-11-22T17:18:50.961Z,15.40
2017-11-22T17:21:18.382Z,13.43
2017-11-22T17:23:45.809Z,14.53
2017-11-22T17:26:13.230Z,14.83
2017-11-22T17:28:40.658Z,13.40
2017-11-22T17:31:08.090Z,14.83
2017-11-22T17:33:35.522Z,15.15
2017-11-22T17:36:02.959Z,15.60
2017-11-22T17:38:30.385Z,14.73
2017-11-22T17:40:57.806Z,14.27
2017-11-22T17:43:25.238Z,14.43
2017-11-22T17:45:52.656Z,12.40
2017-11-22T17:48:20.094Z,11.87
2017-11-22T17:50:47.518Z,13.03
2017-11-22T17:53:14.955Z,13.30
2017-11-22T17:55:42.389Z,12.13
2017-11-22T17:58:09.811Z,11.80
2017-11-22T18:00:37.248Z,11.80
2017-11-22T18:03:04.669Z,12.00
2017-11-22T18:05:32.085Z,13.77
2017-11-22T18:07:59.521Z,12.30
2017-11-22T18:10:26.941Z,14.17
2017-11-22T18:12:54.377Z,14.57
2017-11-22T18:15:21.809Z,13.30
2017-11-22T18:17:49.229Z,10.60
2017-11-22T18:20:16.661Z,11.00
2017-11-22T18:22:44.093Z,11.50
2017-11-22T18:25:11.556Z,10.63
2017-11-22T18:27:38.975Z,9.40
2017-11-22T18:30:06.414Z,9.87
2017-11-22T18:32:33.892Z,11.50
2017-11-22T18:35:01.320Z,11.53
2017-11-22T18:37:28.760Z,11.43
2017-11-22T18:39:56.186Z,10.30
2017-11-22T18:42:23.617Z,11.23
2017-11-22T18:44:51.045Z,10.63
2017-11-22T18:47:18.483Z,10.93
2017-11-22T18:49:47.594Z,10.43
2017-11-22T18:52:15.023Z,11.30
2017-11-22T18:54:42.450Z,12.00
2017-11-22T18:57:10.578Z,11.73
2017-11-22T18:59:37.996Z,13.03
2017-11-22T19:02:05.438Z,13.33
2017-11-22T19:04:32.870Z,12.30
2017-11-22T19:07:00.293Z,11.63
2017-11-22T19:09:27.735Z,10.87
2017-11-22T19:11:55.175Z,12.03
2017-11-22T19:14:22.617Z,11.80
2017-11-22T19:16:50.045Z,12.90
2017-11-22T19:19:17.481Z,12.13
2017-11-22T19:21:44.930Z,12.30
2017-11-22T19:24:12.373Z,12.40
2017-11-22T19:26:39.818Z,12.20
2017-11-22T19:29:07.259Z,13.20
2017-11-22T19:31:34.678Z,14.53
2017-11-22T19:34:02.131Z,13.90
2017-11-22T19:36:29.564Z,15.00
2017-11-22T19:38:57.026Z,16.23
2017-11-22T19:41:24.455Z,20.05
2017-11-22T19:43:51.886Z,22.08
2017-11-22T19:46:19.338Z,19.50
2017-11-22T19:48:46.773Z,20.17
2017-11-22T19:51:14.233Z,18.48
2017-11-22T19:53:41.675Z,18.70
2017-11-22T19:56:09.114Z,17.65
2017-11-22T19:58:36.557Z,16.00
2017-11-22T20:01:04.011Z,15.13
2017-11-22T20:03:31.458Z,15.07
2017-11-22T20:05:58.889Z,13.50
2017-11-22T20:08:38.032Z,11.70
2017-11-22T20:11:05.463Z,11.50
2017-11-22T20:13:32.906Z,10.20
2017-11-22T20:16:00.346Z,9.25
2017-11-22T20:18:27.798Z,9.57
2017-11-22T20:20:55.262Z,9.20
2017-11-22T20:23:22.702Z,10.30
2017-11-22T20:25:50.142Z,10.73
2017-11-22T20:28:17.589Z,10.30
2017-11-22T20:30:45.054Z,10.50
2017-11-22T20:33:12.476Z,10.30
2017-11-22T20:35:39.925Z,10.83
2017-11-22T20:38:07.378Z,11.82
2017-11-22T20:40:34.809Z,11.80
2017-11-22T20:43:02.254Z,11.57
2017-11-22T20:45:29.825Z,12.10
2017-11-22T20:47:57.257Z,12.52
2017-11-22T20:50:24.700Z,12.93
2017-11-22T20:52:52.133Z,12.82
2017-11-22T20:55:20.627Z,13.00
2017-11-22T20:57:48.059Z,13.57
2017-11-22T21:00:15.498Z,13.25
2017-11-22T21:02:42.943Z,14.10
2017-11-22T21:05:10.382Z,13.32
2017-11-22T21:07:37.876Z,13.73
2017-11-22T21:10:05.299Z,13.32
2017-11-22T21:12:32.729Z,14.00
2017-11-22T21:15:00.197Z,15.27
2017-11-22T21:17:27.634Z,15.48
2017-11-22T21:19:55.082Z,15.13
2017-11-22T21:22:22.511Z,16.80
2017-11-22T21:24:49.943Z,15.15
2017-11-22T21:27:18.584Z,15.55
2017-11-22T21:29:46.005Z,16.30
2017-11-22T21:32:13.584Z,15.68
2017-11-22T21:34:41.029Z,15.23
2017-11-22T21:37:08.464Z,15.75
2017-11-22T21:39:35.902Z,14.75
2017-11-22T21:42:03.334Z,14.80
2017-11-22T21:44:30.777Z,14.95
2017-11-22T21:46:58.209Z,14.57
2017-11-22T21:49:25.638Z,15.05
2017-11-22T21:51:53.082Z,15.43
2017-11-22T21:54:20.510Z,16.10
2017-11-22T21:56:47.954Z,15.50
2017-11-22T21:59:15.385Z,15.57
2017-11-22T22:01:42.818Z,16.80
2017-11-22T22:04:10.249Z,18.20
2017-11-22T22:06:37.682Z,17.00
2017-11-22T22:09:05.122Z,18.10
2017-11-22T22:11:32.575Z,18.62
2017-11-22T22:14:00.027Z,17.98
2017-11-22T22:16:27.467Z,18.75
2017-11-22T22:18:54.906Z,18.87
2017-11-22T22:21:22.346Z,17.75
2017-11-22T22:23:49.770Z,18.45
2017-11-22T22:26:17.219Z,19.15
2017-11-22T22:28:44.645Z,18.80
2017-11-22T22:31:12.102Z,18.95
2017-11-22T22:33:39.535Z,18.20
2017-11-22T22:36:06.962Z,20.62
2017-11-22T22:38:34.402Z,19.23
2017-11-22T22:41:01.831Z,18.83
2017-11-22T22:43:29.274Z,17.75
2017-11-22T22:45:56.703Z,18.85
2017-11-22T22:48:24.129Z,18.25
2017-11-22T22:50:51.570Z,19.55
2017-11-22T22:53:19.013Z,19.08
2017-11-22T22:55:46.457Z,21.98
2017-11-22T22:58:13.894Z,22.13
2017-11-22T23:00:41.321Z,22.60
2017-11-22T23:03:08.775Z,22.85
2017-11-22T23:05:36.213Z,22.65
2017-11-22T23:08:03.658Z,23.12
2017-11-22T23:10:31.090Z,23.50
2017-11-22T23:12:58.517Z,22.45
2017-11-22T23:15:25.959Z,25.10
2017-11-22T23:17:53.386Z,24.02
2017-11-22T23:20:20.829Z,22.83
2017-11-22T23:22:48.258Z,23.55
2017-11-22T23:25:15.696Z,21.08
2017-11-22T23:27:43.146Z,22.27
2017-11-22T23:30:10.670Z,22.13
2017-11-22T23:32:38.110Z,19.20
2017-11-22T23:35:05.558Z,19.42
2017-11-22T23:37:32.994Z,17.58
2017-11-22T23:40:00.421Z,18.05
2017-11-22T23:42:27.861Z,16.90
2017-11-22T23:44:55.292Z,17.65
2017-11-22T23:47:22.741Z,18.02
2017-11-22T23:49:50.169Z,18.02
2017-11-22T23:52:17.606Z,17.23
2017-11-22T23:54:45.038Z,17.55
2017-11-22T23:57:12.473Z,17.67
2017-11-22T23:59:39.923Z,17.58
